createdAt,value
2017-08-25T00:01:00.858Z,1003.5
2017-08-25T00:02:02.351Z,1003.6
2017-08-25T00:03:03.753Z,1003.6
2017-08-25T00:04:05.222Z,1003.7
2017-08-25T00:05:06.625Z,1003.7
2017-08-25T00:06:08.033Z,1003.7
2017-08-25T00:07:09.542Z,1003.7
2017-08-25T00:08:10.941Z,1003.7
2017-08-25T00:09:12.341Z,1003.7
2017-08-25T00:10:13.763Z,1003.7
2017-08-25T00:11:15.167Z,1003.7
2017-08-25T00:12:16.594Z,1003.7
2017-08-25T00:13:18.079Z,1003.6
2017-08-25T00:14:19.477Z,1003.6
2017-08-25T00:15:20.875Z,1003.7
2017-08-25T00:16:22.300Z,1003.7
2017-08-25T00:17:23.700Z,1003.7
2017-08-25T00:18:25.181Z,1003.7
2017-08-25T00:19:26.579Z,1003.7
2017-08-25T00:20:28.062Z,1003.7
2017-08-25T00:21:29.458Z,1003.7
2017-08-25T00:22:30.945Z,1003.7
2017-08-25T00:23:32.342Z,1003.8
2017-08-25T00:24:33.822Z,1003.8
2017-08-25T00:25:35.222Z,1003.8
2017-08-25T00:26:36.620Z,1003.8
2017-08-25T00:27:38.040Z,1003.8
2017-08-25T00:28:39.438Z,1003.9
2017-08-25T00:29:40.835Z,1003.9
2017-08-25T00:30:42.260Z,1003.9
2017-08-25T00:31:43.664Z,1003.9
2017-08-25T00:32:45.058Z,1004.0
2017-08-25T00:33:46.479Z,1004.0
2017-08-25T00:34:47.899Z,1004.1
2017-08-25T00:35:49.296Z,1004.2
2017-08-25T00:36:50.800Z,1004.2
2017-08-25T00:37:52.198Z,1004.2
2017-08-25T00:38:53.680Z,1004.2
2017-08-25T00:39:55.080Z,1004.2
2017-08-25T00:40:56.560Z,1004.2
2017-08-25T00:41:57.959Z,1004.2
2017-08-25T00:42:59.441Z,1004.3
2017-08-25T00:44:00.838Z,1004.3
2017-08-25T00:45:02.322Z,1004.3
2017-08-25T00:46:03.721Z,1004.3
2017-08-25T00:47:05.126Z,1004.4
2017-08-25T00:48:06.542Z,1004.4
2017-08-25T00:49:07.940Z,1004.4
2017-08-25T00:50:09.339Z,1004.4
2017-08-25T00:51:10.762Z,1004.4
2017-08-25T00:52:12.162Z,1004.5
2017-08-25T00:53:13.644Z,1004.5
2017-08-25T00:54:15.043Z,1004.6
2017-08-25T00:55:16.519Z,1004.7
2017-08-25T00:56:17.922Z,1004.8
2017-08-25T00:57:19.316Z,1004.8
2017-08-25T00:58:20.739Z,1004.8
2017-08-25T00:59:22.138Z,1004.8
2017-08-25T01:00:23.531Z,1004.9
2017-08-25T01:01:24.959Z,1005.0
2017-08-25T01:02:26.358Z,1005.1
2017-08-25T01:03:27.838Z,1005.1
2017-08-25T01:04:29.238Z,1005.1
2017-08-25T01:05:30.719Z,1005.2
2017-08-25T01:06:32.120Z,1005.2
2017-08-25T01:07:33.597Z,1005.3
2017-08-25T01:08:35.001Z,1005.3
2017-08-25T01:09:36.481Z,1005.4
2017-08-25T01:10:37.893Z,1005.4
2017-08-25T01:11:39.365Z,1005.5
2017-08-25T01:12:40.763Z,1005.5
2017-08-25T01:13:42.242Z,1005.5
2017-08-25T01:14:43.639Z,1005.5
2017-08-25T01:15:45.039Z,1005.6
2017-08-25T01:16:46.460Z,1005.6
2017-08-25T01:17:47.858Z,1005.6
2017-08-25T01:18:49.252Z,1005.6
2017-08-25T01:19:50.679Z,1005.6
2017-08-25T01:20:52.077Z,1005.7
2017-08-25T01:21:53.484Z,1005.7
2017-08-25T01:22:54.898Z,1005.8
2017-08-25T01:23:56.312Z,1005.7
2017-08-25T01:24:57.712Z,1005.8
2017-08-25T01:25:59.217Z,1005.8
2017-08-25T01:27:00.616Z,1005.7
2017-08-25T01:28:02.016Z,1005.7
2017-08-25T01:29:03.437Z,1005.7
2017-08-25T01:30:04.843Z,1005.7
2017-08-25T01:31:06.264Z,1005.7
2017-08-25T01:32:07.758Z,1005.7
2017-08-25T01:33:09.155Z,1005.7
2017-08-25T01:34:10.558Z,1005.7
2017-08-25T01:35:11.977Z,1005.6
2017-08-25T01:36:13.375Z,1005.6
2017-08-25T01:37:14.776Z,1005.6
2017-08-25T01:38:16.196Z,1005.6
2017-08-25T01:39:17.603Z,1005.6
2017-08-25T01:40:18.987Z,1005.5
2017-08-25T01:41:20.419Z,1005.6
2017-08-25T01:42:21.842Z,1005.5
2017-08-25T01:43:23.295Z,1005.6
2017-08-25T01:44:24.717Z,1005.5
2017-08-25T01:45:26.177Z,1005.4
2017-08-25T01:46:27.574Z,1005.4
2017-08-25T01:47:28.970Z,1005.4
2017-08-25T01:48:30.394Z,1005.4
2017-08-25T01:49:31.792Z,1005.5
2017-08-25T01:50:33.191Z,1005.4
2017-08-25T01:51:34.715Z,1005.3
2017-08-25T01:52:36.117Z,1005.4
2017-08-25T01:53:37.598Z,1005.4
2017-08-25T01:54:38.992Z,1005.4
2017-08-25T01:55:40.476Z,1005.4
2017-08-25T01:56:41.892Z,1005.3
2017-08-25T01:57:43.407Z,1005.4
2017-08-25T01:58:44.808Z,1005.3
2017-08-25T01:59:46.240Z,1005.4
2017-08-25T02:00:47.638Z,1005.3
2017-08-25T02:01:49.044Z,1005.3
2017-08-25T02:02:50.437Z,1005.4
2017-08-25T02:03:51.896Z,1005.4
2017-08-25T02:04:53.311Z,1005.4
2017-08-25T02:05:54.778Z,1005.4
2017-08-25T02:06:56.178Z,1005.4
2017-08-25T02:07:57.573Z,1005.4
2017-08-25T02:08:58.997Z,1005.4
2017-08-25T02:10:00.394Z,1005.5
2017-08-25T02:11:01.792Z,1005.5
2017-08-25T02:12:03.215Z,1005.5
2017-08-25T02:13:04.643Z,1005.6
2017-08-25T02:14:05.995Z,1005.6
2017-08-25T02:15:07.428Z,1005.6
2017-08-25T02:16:08.828Z,1005.7
2017-08-25T02:17:10.243Z,1005.8
2017-08-25T02:18:11.753Z,1005.8
2017-08-25T02:19:13.152Z,1005.9
2017-08-25T02:20:14.559Z,1005.9
2017-08-25T02:21:15.952Z,1006.0
2017-08-25T02:22:17.414Z,1006.1
2017-08-25T02:23:18.809Z,1006.1
2017-08-25T02:24:20.293Z,1006.2
2017-08-25T02:25:21.699Z,1006.3
2017-08-25T02:26:23.173Z,1006.4
2017-08-25T02:27:24.574Z,1006.4
2017-08-25T02:28:25.971Z,1006.5
2017-08-25T02:29:27.794Z,1006.5
2017-08-25T02:30:29.192Z,1006.5
2017-08-25T02:31:30.589Z,1006.5
2017-08-25T02:32:32.022Z,1006.6
2017-08-25T02:33:33.417Z,1006.7
2017-08-25T02:34:34.820Z,1006.7
2017-08-25T02:35:36.241Z,1006.8
2017-08-25T02:36:37.636Z,1006.8
2017-08-25T02:37:39.033Z,1006.9
2017-08-25T02:38:40.459Z,1007.0
2017-08-25T02:39:41.855Z,1007.0
2017-08-25T02:40:43.254Z,1007.0
2017-08-25T02:41:44.677Z,1007.1
2017-08-25T02:42:46.078Z,1007.1
2017-08-25T02:43:47.556Z,1007.1
2017-08-25T02:44:48.956Z,1007.1
2017-08-25T02:45:50.437Z,1007.2
2017-08-25T02:46:51.835Z,1007.3
2017-08-25T02:47:53.322Z,1007.3
2017-08-25T02:48:54.726Z,1007.3
2017-08-25T02:49:56.198Z,1007.4
2017-08-25T02:50:57.597Z,1007.3
2017-08-25T02:51:59.082Z,1007.3
2017-08-25T02:53:00.480Z,1007.3
2017-08-25T02:54:01.879Z,1007.3
2017-08-25T02:55:03.298Z,1007.3
2017-08-25T02:56:04.725Z,1007.3
2017-08-25T02:57:06.118Z,1007.3
2017-08-25T02:58:07.619Z,1007.3
2017-08-25T02:59:09.017Z,1007.3
2017-08-25T03:00:10.415Z,1007.3
2017-08-25T03:01:11.837Z,1007.3
2017-08-25T03:02:13.638Z,1007.1
2017-08-25T03:03:15.034Z,1007.2
2017-08-25T03:04:16.466Z,1007.1
2017-08-25T03:05:18.403Z,1007.1
2017-08-25T03:06:19.797Z,1007.1
2017-08-25T03:07:21.402Z,1007.1
2017-08-25T03:08:22.799Z,1007.0
2017-08-25T03:09:24.195Z,1007.0
2017-08-25T03:10:25.723Z,1007.0
2017-08-25T03:11:27.123Z,1006.9
2017-08-25T03:12:28.511Z,1007.0
2017-08-25T03:13:29.941Z,1007.0
2017-08-25T03:14:31.339Z,1006.9
2017-08-25T03:15:32.942Z,1007.0
2017-08-25T03:16:34.357Z,1006.9
2017-08-25T03:17:35.757Z,1006.9
2017-08-25T03:18:37.348Z,1006.9
2017-08-25T03:19:38.744Z,1006.8
2017-08-25T03:20:40.142Z,1006.8
2017-08-25T03:21:41.670Z,1006.7
2017-08-25T03:22:43.067Z,1006.7
2017-08-25T03:23:44.466Z,1006.6
2017-08-25T03:24:45.990Z,1006.7
2017-08-25T03:25:47.388Z,1006.6
2017-08-25T03:26:48.788Z,1006.6
2017-08-25T03:27:50.312Z,1006.6
2017-08-25T03:28:51.708Z,1006.6
2017-08-25T03:29:53.105Z,1006.5
2017-08-25T03:30:54.636Z,1006.5
2017-08-25T03:31:56.032Z,1006.4
2017-08-25T03:32:57.442Z,1006.4
2017-08-25T03:33:59.011Z,1006.4
2017-08-25T03:35:00.409Z,1006.4
2017-08-25T03:36:02.039Z,1006.3
2017-08-25T03:37:03.443Z,1006.3
2017-08-25T03:38:05.136Z,1006.3
2017-08-25T03:39:06.525Z,1006.3
2017-08-25T03:40:08.210Z,1006.3
2017-08-25T03:41:09.605Z,1006.3
2017-08-25T03:42:11.300Z,1006.2
2017-08-25T03:43:12.704Z,1006.2
2017-08-25T03:44:14.177Z,1006.1
2017-08-25T03:45:15.574Z,1006.1
2017-08-25T03:46:17.262Z,1006.1
2017-08-25T03:47:18.658Z,1006.1
2017-08-25T03:48:20.058Z,1006.0
2017-08-25T03:49:21.601Z,1006.0
2017-08-25T03:50:22.977Z,1006.1
2017-08-25T03:51:24.378Z,1006.0
2017-08-25T03:52:25.914Z,1006.0
2017-08-25T03:53:27.312Z,1006.0
2017-08-25T03:54:28.887Z,1006.0
2017-08-25T03:55:30.283Z,1006.0
2017-08-25T03:56:31.878Z,1005.9
2017-08-25T03:57:33.267Z,1006.0
2017-08-25T03:58:34.955Z,1006.0
2017-08-25T03:59:36.353Z,1006.0
2017-08-25T04:00:38.039Z,1006.0
2017-08-25T04:01:39.439Z,1006.0
2017-08-25T04:02:41.128Z,1006.0
2017-08-25T04:03:42.522Z,1006.0
2017-08-25T04:04:44.221Z,1006.0
2017-08-25T04:05:45.619Z,1006.0
2017-08-25T04:06:47.309Z,1005.9
2017-08-25T04:07:48.697Z,1005.9
2017-08-25T04:08:50.108Z,1005.9
2017-08-25T04:09:51.668Z,1005.9
2017-08-25T04:10:53.063Z,1005.9
2017-08-25T04:11:54.461Z,1006.0
2017-08-25T04:12:56.161Z,1006.0
2017-08-25T04:13:57.548Z,1005.9
2017-08-25T04:14:58.945Z,1006.0
2017-08-25T04:16:00.368Z,1006.0
2017-08-25T04:17:01.775Z,1006.0
2017-08-25T04:18:03.174Z,1006.0
2017-08-25T04:19:04.718Z,1006.0
2017-08-25T04:20:06.116Z,1006.0
2017-08-25T04:21:07.518Z,1006.0
2017-08-25T04:22:09.012Z,1006.0
2017-08-25T04:23:10.413Z,1006.0
2017-08-25T04:24:11.815Z,1006.0
2017-08-25T04:25:13.336Z,1006.1
2017-08-25T04:26:14.733Z,1006.1
2017-08-25T04:27:16.216Z,1006.2
2017-08-25T04:28:17.616Z,1006.2
2017-08-25T04:29:19.133Z,1006.1
2017-08-25T04:30:20.576Z,1006.2
2017-08-25T04:31:23.004Z,1006.2
2017-08-25T04:32:24.403Z,1006.2
2017-08-25T04:33:25.803Z,1006.2
2017-08-25T04:34:27.328Z,1006.3
2017-08-25T04:35:28.728Z,1006.3
2017-08-25T04:36:30.127Z,1006.4
2017-08-25T04:37:31.650Z,1006.4
2017-08-25T04:38:33.050Z,1006.4
2017-08-25T04:39:34.448Z,1006.5
2017-08-25T04:40:35.967Z,1006.5
2017-08-25T04:41:37.370Z,1006.5
2017-08-25T04:42:38.765Z,1006.6
2017-08-25T04:43:40.289Z,1006.6
2017-08-25T04:44:41.691Z,1006.7
2017-08-25T04:45:43.171Z,1006.7
2017-08-25T04:46:44.569Z,1006.7
2017-08-25T04:47:46.063Z,1006.8
2017-08-25T04:48:47.463Z,1006.8
2017-08-25T04:49:48.934Z,1006.9
2017-08-25T04:50:50.337Z,1007.0
2017-08-25T04:51:51.813Z,1007.1
2017-08-25T04:52:53.214Z,1007.1
2017-08-25T04:53:54.693Z,1007.2
2017-08-25T04:54:56.093Z,1007.3
2017-08-25T04:55:57.576Z,1007.3
2017-08-25T04:56:58.979Z,1007.4
2017-08-25T04:58:00.461Z,1007.4
2017-08-25T04:59:01.866Z,1007.5
2017-08-25T05:00:03.337Z,1007.6
2017-08-25T05:01:04.742Z,1007.7
2017-08-25T05:02:06.219Z,1007.8
2017-08-25T05:03:07.626Z,1007.9
2017-08-25T05:04:09.022Z,1008.0
2017-08-25T05:05:10.555Z,1008.0
2017-08-25T05:06:11.960Z,1008.1
2017-08-25T05:07:13.394Z,1008.2
2017-08-25T05:08:14.863Z,1008.3
2017-08-25T05:09:16.265Z,1008.4
2017-08-25T05:10:17.665Z,1008.5
2017-08-25T05:11:19.183Z,1008.5
2017-08-25T05:12:20.616Z,1008.7
2017-08-25T05:13:22.025Z,1008.8
2017-08-25T05:14:23.518Z,1008.9
2017-08-25T05:15:24.920Z,1009.0
2017-08-25T05:16:26.344Z,1009.0
2017-08-25T05:17:27.828Z,1009.1
2017-08-25T05:18:29.229Z,1009.3
2017-08-25T05:19:30.634Z,1009.4
2017-08-25T05:20:32.146Z,1009.5
2017-08-25T05:21:33.554Z,1009.7
2017-08-25T05:22:34.952Z,1009.8
2017-08-25T05:23:36.320Z,1009.9
2017-08-25T05:24:37.720Z,1010.1
2017-08-25T05:25:39.128Z,1010.2
2017-08-25T05:26:40.589Z,1010.3
2017-08-25T05:27:41.988Z,1010.5
2017-08-25T05:28:43.389Z,1010.6
2017-08-25T05:29:44.908Z,1010.7
2017-08-25T05:30:46.309Z,1010.9
2017-08-25T05:31:47.799Z,1010.9
2017-08-25T05:32:49.195Z,1011.1
2017-08-25T05:33:50.672Z,1011.3
2017-08-25T05:34:52.075Z,1011.4
2017-08-25T05:35:53.554Z,1011.6
2017-08-25T05:36:54.955Z,1011.7
2017-08-25T05:37:56.439Z,1011.8
2017-08-25T05:38:57.842Z,1012.0
2017-08-25T05:39:59.246Z,1012.1
2017-08-25T05:41:00.757Z,1012.2
2017-08-25T05:42:02.157Z,1012.3
2017-08-25T05:43:03.556Z,1012.4
2017-08-25T05:44:05.103Z,1012.6
2017-08-25T05:45:06.507Z,1012.8
2017-08-25T05:46:07.926Z,1012.9
2017-08-25T05:47:09.478Z,1013.0
2017-08-25T05:48:10.883Z,1013.1
2017-08-25T05:49:12.304Z,1013.2
2017-08-25T05:50:13.795Z,1013.4
2017-08-25T05:51:15.198Z,1013.5
2017-08-25T05:52:16.885Z,1013.7
2017-08-25T05:53:18.289Z,1013.8
2017-08-25T05:54:19.966Z,1013.9
2017-08-25T05:55:21.370Z,1014.0
2017-08-25T05:56:23.054Z,1014.1
2017-08-25T05:57:24.460Z,1014.2
2017-08-25T05:58:26.141Z,1014.3
2017-08-25T05:59:27.540Z,1014.4
2017-08-25T06:00:29.231Z,1014.5
2017-08-25T06:01:30.636Z,1014.6
2017-08-25T06:02:32.310Z,1014.7
2017-08-25T06:03:33.722Z,1014.8
2017-08-25T06:04:35.123Z,1015.0
2017-08-25T06:05:36.636Z,1015.1
2017-08-25T06:06:38.038Z,1015.2
2017-08-25T06:07:39.442Z,1015.3
2017-08-25T06:08:40.961Z,1015.3
2017-08-25T06:09:42.365Z,1015.4
2017-08-25T06:10:43.772Z,1015.5
2017-08-25T06:11:45.294Z,1015.7
2017-08-25T06:12:46.687Z,1015.8
2017-08-25T06:13:48.086Z,1015.9
2017-08-25T06:14:49.594Z,1016.0
2017-08-25T06:15:50.997Z,1016.1
2017-08-25T06:16:52.693Z,1016.3
2017-08-25T06:17:54.101Z,1016.5
2017-08-25T06:18:55.694Z,1016.6
2017-08-25T06:19:57.100Z,1016.8
2017-08-25T06:20:58.502Z,1017.0
2017-08-25T06:22:00.087Z,1017.2
2017-08-25T06:23:01.530Z,1017.4
2017-08-25T06:24:02.918Z,1017.5
2017-08-25T06:25:04.408Z,1017.6
2017-08-25T06:26:05.808Z,1017.6
2017-08-25T06:27:07.509Z,1017.8
2017-08-25T06:28:08.914Z,1017.9
2017-08-25T06:29:10.581Z,1018.1
2017-08-25T06:30:11.979Z,1018.2
2017-08-25T06:31:13.380Z,1018.2
2017-08-25T06:32:14.898Z,1018.4
2017-08-25T06:33:16.300Z,1018.5
2017-08-25T06:34:17.703Z,1018.5
2017-08-25T06:35:19.118Z,1018.6
2017-08-25T06:36:20.524Z,1018.7
2017-08-25T06:37:21.999Z,1018.9
2017-08-25T06:38:23.403Z,1019.0
2017-08-25T06:39:24.883Z,1019.1
2017-08-25T06:40:26.301Z,1019.3
2017-08-25T06:41:27.696Z,1019.5
2017-08-25T06:42:29.203Z,1019.7
2017-08-25T06:43:30.607Z,1019.9
2017-08-25T06:44:32.022Z,1020.1
2017-08-25T06:45:33.532Z,1020.3
2017-08-25T06:46:34.934Z,1020.5
2017-08-25T06:47:36.406Z,1020.8
2017-08-25T06:48:37.812Z,1021.0
2017-08-25T06:49:39.282Z,1021.3
2017-08-25T06:50:40.691Z,1021.5
2017-08-25T06:51:42.166Z,1021.6
2017-08-25T06:52:43.572Z,1021.8
2017-08-25T06:53:45.045Z,1021.8
2017-08-25T06:54:46.452Z,1022.0
2017-08-25T06:55:47.924Z,1022.2
2017-08-25T06:56:49.330Z,1022.2
2017-08-25T06:57:50.806Z,1022.3
2017-08-25T06:58:52.212Z,1022.2
2017-08-25T06:59:53.701Z,1022.4
2017-08-25T07:00:55.132Z,1022.5
2017-08-25T07:01:56.569Z,1022.7
2017-08-25T07:02:57.979Z,1022.9
2017-08-25T07:03:59.448Z,1023.1
2017-08-25T07:05:00.855Z,1023.2
2017-08-25T07:06:02.334Z,1023.2
2017-08-25T07:07:03.739Z,1023.4
2017-08-25T07:08:05.594Z,1023.6
2017-08-25T07:09:07.001Z,1023.8
2017-08-25T07:10:08.501Z,1023.8
2017-08-25T07:11:09.910Z,1023.9
2017-08-25T07:12:11.382Z,1024.1
2017-08-25T07:13:12.787Z,1024.4
2017-08-25T07:14:14.264Z,1024.6
2017-08-25T07:15:15.673Z,1025.0
2017-08-25T07:16:17.548Z,1025.5
2017-08-25T07:17:18.952Z,1025.9
2017-08-25T07:18:20.455Z,1026.3
2017-08-25T07:19:21.916Z,1026.7
2017-08-25T07:20:23.341Z,1027.1
2017-08-25T07:21:24.754Z,1027.5
2017-08-25T07:22:26.157Z,1027.8
2017-08-25T07:23:27.559Z,1028.0
2017-08-25T07:24:29.076Z,1028.2
2017-08-25T07:25:30.479Z,1028.0
2017-08-25T07:26:31.884Z,1028.0
2017-08-25T07:27:33.396Z,1028.2
2017-08-25T07:28:34.800Z,1028.3
2017-08-25T07:29:36.279Z,1028.5
2017-08-25T07:30:37.697Z,1028.9
2017-08-25T07:31:39.157Z,1029.3
2017-08-25T07:32:40.569Z,1029.7
2017-08-25T07:33:42.038Z,1030.0
2017-08-25T07:34:43.444Z,1030.3
2017-08-25T07:35:44.939Z,1030.6
2017-08-25T07:36:46.341Z,1030.9
2017-08-25T07:37:47.744Z,1031.1
2017-08-25T07:38:49.245Z,1030.9
2017-08-25T07:39:50.648Z,1030.7
2017-08-25T07:40:52.062Z,1030.4
2017-08-25T07:41:53.559Z,1030.2
2017-08-25T07:42:54.964Z,1029.9
2017-08-25T07:43:56.368Z,1029.7
2017-08-25T07:44:57.774Z,1029.8
2017-08-25T07:45:59.177Z,1030.0
2017-08-25T07:47:00.660Z,1029.9
2017-08-25T07:48:02.071Z,1030.2
2017-08-25T07:49:04.560Z,1030.4
2017-08-25T07:50:05.975Z,1030.7
2017-08-25T07:51:07.444Z,1030.8
2017-08-25T07:52:08.853Z,1030.9
2017-08-25T07:53:10.326Z,1031.0
2017-08-25T07:54:11.730Z,1031.1
2017-08-25T07:55:13.207Z,1031.2
2017-08-25T07:56:14.610Z,1031.3
2017-08-25T07:57:16.090Z,1031.4
2017-08-25T07:58:17.496Z,1031.5
2017-08-25T07:59:18.968Z,1031.7
2017-08-25T08:00:20.375Z,1032.0
2017-08-25T08:01:21.849Z,1032.2
2017-08-25T08:02:23.258Z,1032.3
2017-08-25T08:03:24.728Z,1032.5
2017-08-25T08:04:26.133Z,1032.6
2017-08-25T08:05:27.621Z,1032.8
2017-08-25T08:06:29.015Z,1033.2
2017-08-25T08:07:30.417Z,1033.5
2017-08-25T08:08:31.930Z,1033.7
2017-08-25T08:09:33.336Z,1034.0
2017-08-25T08:10:34.741Z,1034.3
2017-08-25T08:11:36.253Z,1034.5
2017-08-25T08:12:37.659Z,1034.6
2017-08-25T08:13:39.063Z,1034.7
2017-08-25T08:14:40.573Z,1034.7
2017-08-25T08:15:41.987Z,1034.8
2017-08-25T08:16:43.389Z,1034.8
2017-08-25T08:17:44.894Z,1034.9
2017-08-25T08:18:46.298Z,1035.0
2017-08-25T08:19:47.775Z,1035.1
2017-08-25T08:20:49.181Z,1035.2
2017-08-25T08:21:50.589Z,1035.4
2017-08-25T08:22:52.096Z,1035.7
2017-08-25T08:23:53.508Z,1036.0
2017-08-25T08:24:54.903Z,1036.4
2017-08-25T08:25:56.435Z,1036.6
2017-08-25T08:26:57.843Z,1037.0
2017-08-25T08:27:59.301Z,1037.6
2017-08-25T08:29:00.708Z,1038.1
2017-08-25T08:30:02.177Z,1038.6
2017-08-25T08:31:03.588Z,1039.0
2017-08-25T08:32:05.012Z,1039.4
2017-08-25T08:33:06.499Z,1039.3
2017-08-25T08:34:07.909Z,1039.3
2017-08-25T08:35:09.321Z,1039.0
2017-08-25T08:36:10.819Z,1038.9
2017-08-25T08:37:12.229Z,1038.9
2017-08-25T08:38:13.635Z,1038.9
2017-08-25T08:39:15.141Z,1039.0
2017-08-25T08:40:16.542Z,1039.1
2017-08-25T08:41:17.966Z,1039.3
2017-08-25T08:42:19.462Z,1039.4
2017-08-25T08:43:20.865Z,1039.7
2017-08-25T08:44:22.273Z,1040.1
2017-08-25T08:45:23.786Z,1040.1
2017-08-25T08:46:25.195Z,1039.8
2017-08-25T08:47:26.616Z,1039.9
2017-08-25T08:48:28.104Z,1040.1
2017-08-25T08:49:29.507Z,1040.2
2017-08-25T08:50:30.984Z,1040.4
2017-08-25T08:51:32.401Z,1040.6
2017-08-25T08:52:33.864Z,1040.9
2017-08-25T08:53:35.276Z,1041.4
2017-08-25T08:54:37.130Z,1042.1
2017-08-25T08:55:38.536Z,1042.7
2017-08-25T08:56:40.036Z,1043.4
2017-08-25T08:57:41.441Z,1043.8
2017-08-25T08:58:42.847Z,1044.3
2017-08-25T08:59:44.433Z,1044.6
2017-08-25T09:00:45.838Z,1044.3
2017-08-25T09:01:47.246Z,1044.3
2017-08-25T09:02:48.681Z,1044.2
2017-08-25T09:03:50.086Z,1044.0
2017-08-25T09:04:51.494Z,1043.9
2017-08-25T09:05:52.998Z,1044.1
2017-08-25T09:06:54.402Z,1044.2
2017-08-25T09:07:55.809Z,1044.5
2017-08-25T09:08:57.321Z,1044.7
2017-08-25T09:09:58.720Z,1044.3
2017-08-25T09:11:00.199Z,1044.6
2017-08-25T09:12:01.608Z,1044.8
2017-08-25T09:13:03.015Z,1045.1
2017-08-25T09:14:04.524Z,1045.3
2017-08-25T09:15:05.930Z,1045.3
2017-08-25T09:16:07.341Z,1045.4
2017-08-25T09:17:08.842Z,1045.6
2017-08-25T09:18:10.245Z,1045.9
2017-08-25T09:19:11.652Z,1046.2
2017-08-25T09:20:13.163Z,1046.7
2017-08-25T09:21:14.568Z,1046.9
2017-08-25T09:22:15.980Z,1047.1
2017-08-25T09:23:17.500Z,1047.2
2017-08-25T09:24:18.949Z,1047.5
2017-08-25T09:25:20.366Z,1047.6
2017-08-25T09:26:21.770Z,1047.6
2017-08-25T09:27:23.180Z,1047.8
2017-08-25T09:28:24.687Z,1048.0
2017-08-25T09:29:26.138Z,1048.1
2017-08-25T09:30:27.559Z,1048.5
2017-08-25T09:31:29.008Z,1048.5
2017-08-25T09:32:30.617Z,1048.7
2017-08-25T09:33:32.029Z,1049.0
2017-08-25T09:34:33.533Z,1049.1
2017-08-25T09:35:34.953Z,1049.3
2017-08-25T09:36:36.417Z,1049.7
2017-08-25T09:37:37.820Z,1049.8
2017-08-25T09:38:39.315Z,1049.9
2017-08-25T09:39:40.720Z,1049.9
2017-08-25T09:40:42.199Z,1050.6
2017-08-25T09:41:43.582Z,1051.4
2017-08-25T09:42:44.994Z,1051.9
2017-08-25T09:43:46.501Z,1052.4
2017-08-25T09:44:47.907Z,1052.9
2017-08-25T09:45:49.317Z,1053.5
2017-08-25T09:46:50.819Z,1054.0
2017-08-25T09:47:52.243Z,1054.6
2017-08-25T09:48:53.652Z,1055.0
2017-08-25T09:49:55.138Z,1055.4
2017-08-25T09:50:56.547Z,1056.0
2017-08-25T09:51:57.957Z,1057.2
2017-08-25T09:52:59.502Z,1058.4
2017-08-25T09:54:00.910Z,1058.7
2017-08-25T09:55:02.343Z,1058.6
2017-08-25T09:56:03.752Z,1059.2
2017-08-25T09:57:05.220Z,1060.1
2017-08-25T09:58:06.636Z,1060.0
2017-08-25T09:59:08.045Z,1061.0
2017-08-25T10:00:09.542Z,1061.0
2017-08-25T10:01:10.952Z,1060.6
2017-08-25T10:02:12.361Z,1061.9
2017-08-25T10:03:13.863Z,1061.0
2017-08-25T10:04:15.273Z,1061.5
2017-08-25T10:05:16.747Z,1062.0
2017-08-25T10:06:18.159Z,1062.1
2017-08-25T10:07:19.671Z,1062.6
2017-08-25T10:08:21.084Z,1061.8
2017-08-25T10:09:22.609Z,1061.7
2017-08-25T10:10:24.020Z,1061.7
2017-08-25T10:11:25.492Z,1061.9
2017-08-25T10:12:26.933Z,1062.9
2017-08-25T10:13:28.388Z,1063.3
2017-08-25T10:14:29.784Z,1064.2
2017-08-25T10:15:31.253Z,1065.1
2017-08-25T10:16:32.665Z,1066.2
2017-08-25T10:17:34.133Z,1067.6
2017-08-25T10:18:35.545Z,1068.7
2017-08-25T10:19:37.013Z,1071.5
2017-08-25T10:20:38.430Z,1073.4
2017-08-25T10:21:39.935Z,1074.4
2017-08-25T10:22:41.344Z,1074.5
2017-08-25T10:23:42.755Z,1076.3
2017-08-25T10:24:44.212Z,1076.5
2017-08-25T10:25:45.627Z,1077.6
2017-08-25T10:26:47.038Z,1079.3
2017-08-25T10:27:48.457Z,1080.4
2017-08-25T10:28:49.873Z,1080.8
2017-08-25T10:29:51.288Z,1080.9
2017-08-25T10:30:52.753Z,1082.5
2017-08-25T10:31:54.168Z,1082.7
2017-08-25T10:32:55.581Z,1081.4
2017-08-25T10:33:57.076Z,1079.8
2017-08-25T10:34:58.483Z,1077.0
2017-08-25T10:35:59.953Z,1076.2
2017-08-25T10:37:01.367Z,1078.1
2017-08-25T10:38:02.833Z,1078.5
2017-08-25T10:39:04.245Z,1076.9
2017-08-25T10:40:05.718Z,1075.2
2017-08-25T10:41:07.137Z,1076.2
2017-08-25T10:42:08.595Z,1079.1
2017-08-25T10:43:10.009Z,1077.6
2017-08-25T10:44:11.488Z,1075.5
2017-08-25T10:45:12.889Z,1075.9
2017-08-25T10:46:14.359Z,1075.3
2017-08-25T10:47:15.772Z,1074.7
2017-08-25T10:48:17.183Z,1075.6
2017-08-25T10:49:19.756Z,1078.0
2017-08-25T10:50:21.170Z,1079.6
2017-08-25T10:51:22.597Z,1080.1
2017-08-25T10:52:24.228Z,1081.2
2017-08-25T10:53:25.641Z,1079.9
2017-08-25T10:54:27.057Z,1079.0
2017-08-25T10:55:28.549Z,1079.3
2017-08-25T10:56:29.961Z,1079.7
2017-08-25T10:57:31.376Z,1078.9
2017-08-25T10:58:32.871Z,1079.3
2017-08-25T10:59:34.285Z,1082.4
2017-08-25T11:00:35.750Z,1084.1
2017-08-25T11:01:37.174Z,1085.3
2017-08-25T11:02:38.632Z,1086.1
2017-08-25T11:03:40.048Z,1086.6
2017-08-25T11:04:41.465Z,1088.8
2017-08-25T11:05:42.962Z,1090.0
2017-08-25T11:06:44.377Z,1090.8
2017-08-25T11:07:45.793Z,1090.3
2017-08-25T11:08:47.659Z,1091.7
2017-08-25T11:09:49.072Z,1091.8
2017-08-25T11:10:50.486Z,1091.4
2017-08-25T11:11:52.005Z,1092.3
2017-08-25T11:12:53.420Z,1094.1
2017-08-25T11:13:54.831Z,1094.7
2017-08-25T11:14:56.328Z,1095.6
2017-08-25T11:15:57.745Z,1097.2
2017-08-25T11:16:59.162Z,1098.4
2017-08-25T11:18:00.648Z,1099.8
2017-08-25T11:19:02.063Z,1101.1
2017-08-25T11:20:03.475Z,1101.3
2017-08-25T11:21:04.969Z,1102.8
2017-08-25T11:22:06.385Z,1103.1
2017-08-25T11:23:07.845Z,1103.8
2017-08-25T11:24:09.265Z,1101.3
2017-08-25T11:25:10.678Z,1101.9
2017-08-25T11:26:12.171Z,1101.7
2017-08-25T11:27:13.580Z,1101.2
2017-08-25T11:28:15.000Z,1099.9
2017-08-25T11:29:16.553Z,1097.6
2017-08-25T11:30:17.966Z,1094.1
2017-08-25T11:31:19.379Z,1090.5
2017-08-25T11:32:21.017Z,1087.1
2017-08-25T11:33:22.435Z,1083.9
2017-08-25T11:34:23.843Z,1080.8
2017-08-25T11:35:25.335Z,1078.2
2017-08-25T11:36:26.749Z,1076.4
2017-08-25T11:37:28.320Z,1075.0
2017-08-25T11:38:29.800Z,1073.4
2017-08-25T11:39:31.263Z,1072.1
2017-08-25T11:40:32.852Z,1071.1
2017-08-25T11:41:34.273Z,1069.9
2017-08-25T11:42:35.703Z,1068.1
2017-08-25T11:43:37.166Z,1066.2
2017-08-25T11:44:38.579Z,1064.7
2017-08-25T11:45:40.049Z,1063.5
2017-08-25T11:46:41.462Z,1061.8
2017-08-25T11:47:43.401Z,1060.8
2017-08-25T11:48:44.816Z,1060.1
2017-08-25T11:49:46.229Z,1059.8
2017-08-25T11:50:47.868Z,1059.7
2017-08-25T11:51:49.289Z,1059.5
2017-08-25T11:52:50.711Z,1059.2
2017-08-25T11:53:52.388Z,1059.5
2017-08-25T11:54:53.799Z,1059.4
2017-08-25T11:55:55.473Z,1059.9
2017-08-25T11:56:56.888Z,1060.0
2017-08-25T11:57:58.559Z,1059.7
2017-08-25T11:58:59.972Z,1058.7
2017-08-25T12:00:01.645Z,1058.2
2017-08-25T12:01:03.058Z,1057.8
2017-08-25T12:02:04.480Z,1057.3
2017-08-25T12:03:06.176Z,1056.1
2017-08-25T12:04:07.584Z,1054.6
2017-08-25T12:05:09.256Z,1052.6
2017-08-25T12:06:10.665Z,1050.5
2017-08-25T12:07:12.340Z,1048.4
2017-08-25T12:08:13.752Z,1046.6
2017-08-25T12:09:15.426Z,1045.0
2017-08-25T12:10:16.837Z,1043.6
2017-08-25T12:11:18.261Z,1042.4
2017-08-25T12:12:19.956Z,1041.7
2017-08-25T12:13:21.369Z,1040.6
2017-08-25T12:14:22.784Z,1039.9
2017-08-25T12:15:24.477Z,1039.2
2017-08-25T12:16:25.893Z,1038.4
2017-08-25T12:17:27.565Z,1037.5
2017-08-25T12:18:28.975Z,1036.6
2017-08-25T12:19:30.398Z,1035.5
2017-08-25T12:20:32.156Z,1034.5
2017-08-25T12:21:33.569Z,1033.6
2017-08-25T12:22:34.999Z,1032.9
2017-08-25T12:23:36.621Z,1032.7
2017-08-25T12:24:38.034Z,1032.3
2017-08-25T12:25:39.445Z,1032.1
2017-08-25T12:26:41.161Z,1032.2
2017-08-25T12:27:42.572Z,1032.6
2017-08-25T12:28:43.983Z,1033.1
2017-08-25T12:29:45.472Z,1033.2
2017-08-25T12:30:46.912Z,1033.3
2017-08-25T12:31:48.348Z,1033.3
2017-08-25T12:32:49.759Z,1033.4
2017-08-25T12:33:51.225Z,1032.8
2017-08-25T12:34:52.636Z,1031.9
2017-08-25T12:35:54.106Z,1030.9
2017-08-25T12:36:55.517Z,1030.4
2017-08-25T12:37:56.987Z,1030.3
2017-08-25T12:38:58.399Z,1030.7
2017-08-25T12:39:59.809Z,1031.0
2017-08-25T12:41:01.309Z,1030.8
2017-08-25T12:42:03.100Z,1030.3
2017-08-25T12:43:04.528Z,1030.3
2017-08-25T12:44:06.045Z,1029.2
2017-08-25T12:45:07.472Z,1028.8
2017-08-25T12:46:08.869Z,1028.4
2017-08-25T12:47:10.412Z,1027.9